sensor_id;sensor_type;location;lat;lon;timestamp;P1;durP1;ratioP1;P2;durP2;ratioP2
52458;SDS011;38372;52.902;6.024;2023-03-01T00:01:58;29.70;;;19.95;;
52458;SDS011;38372;52.902;6.024;2023-03-01T00:04:24;33.33;;;22.10;;
52458;SDS011;38372;52.902;6.024;2023-03-01T00:06:50;37.63;;;21.42;;
52458;SDS011;38372;52.902;6.024;2023-03-01T00:09:16;32.80;;;20.92;;
52458;SDS011;38372;52.902;6.024;2023-03-01T00:11:42;37.60;;;21.50;;
52458;SDS011;38372;52.902;6.024;2023-03-01T00:14:08;32.83;;;21.30;;
52458;SDS011;38372;52.902;6.024;2023-03-01T00:16:38;32.38;;;21.63;;
52458;SDS011;38372;52.902;6.024;2023-03-01T00:19:06;31.30;;;20.88;;
52458;SDS011;38372;52.902;6.024;2023-03-01T00:21:34;31.95;;;19.85;;
52458;SDS011;38372;52.902;6.024;2023-03-01T00:24:00;35.08;;;20.35;;
52458;SDS011;38372;52.902;6.024;2023-03-01T00:26:27;30.67;;;19.08;;
52458;SDS011;38372;52.902;6.024;2023-03-01T00:28:53;32.38;;;20.70;;
52458;SDS011;38372;52.902;6.024;2023-03-01T00:31:23;29.77;;;19.45;;
52458;SDS011;38372;52.902;6.024;2023-03-01T00:33:54;30.40;;;17.90;;
52458;SDS011;38372;52.902;6.024;2023-03-01T00:36:23;31.45;;;20.35;;
52458;SDS011;38372;52.902;6.024;2023-03-01T00:38:50;34.83;;;19.63;;
52458;SDS011;38372;52.902;6.024;2023-03-01T00:41:17;35.15;;;20.00;;
52458;SDS011;38372;52.902;6.024;2023-03-01T00:43:44;37.20;;;20.95;;
52458;SDS011;38372;52.902;6.024;2023-03-01T00:46:15;34.90;;;20.88;;
52458;SDS011;38372;52.902;6.024;2023-03-01T00:48:42;30.98;;;19.10;;
52458;SDS011;38372;52.902;6.024;2023-03-01T00:51:09;32.75;;;20.63;;
52458;SDS011;38372;52.902;6.024;2023-03-01T00:53:41;26.67;;;17.08;;
52458;SDS011;38372;52.902;6.024;2023-03-01T00:56:08;28.80;;;17.20;;
52458;SDS011;38372;52.902;6.024;2023-03-01T00:58:38;32.67;;;19.08;;
52458;SDS011;38372;52.902;6.024;2023-03-01T01:01:09;33.08;;;20.00;;
52458;SDS011;38372;52.902;6.024;2023-03-01T01:03:52;34.55;;;20.15;;
52458;SDS011;38372;52.902;6.024;2023-03-01T01:06:20;42.72;;;19.95;;
52458;SDS011;38372;52.902;6.024;2023-03-01T01:08:51;40.85;;;17.90;;
52458;SDS011;38372;52.902;6.024;2023-03-01T01:11:19;44.42;;;18.05;;
52458;SDS011;38372;52.902;6.024;2023-03-01T01:13:46;28.85;;;16.08;;
52458;SDS011;38372;52.902;6.024;2023-03-01T01:16:13;322.27;;;50.65;;
52458;SDS011;38372;52.902;6.024;2023-03-01T01:18:40;281.20;;;46.08;;
52458;SDS011;38372;52.902;6.024;2023-03-01T01:21:07;96.72;;;25.10;;
52458;SDS011;38372;52.902;6.024;2023-03-01T01:23:35;39.70;;;20.80;;
52458;SDS011;38372;52.902;6.024;2023-03-01T01:26:06;74.43;;;28.38;;
52458;SDS011;38372;52.902;6.024;2023-03-01T01:28:37;87.53;;;24.95;;
52458;SDS011;38372;52.902;6.024;2023-03-01T01:31:03;43.70;;;22.63;;
52458;SDS011;38372;52.902;6.024;2023-03-01T01:33:29;418.92;;;69.93;;
52458;SDS011;38372;52.902;6.024;2023-03-01T01:35:55;700.22;;;89.07;;
52458;SDS011;38372;52.902;6.024;2023-03-01T01:38:21;414.00;;;55.83;;
52458;SDS011;38372;52.902;6.024;2023-03-01T01:40:48;316.05;;;39.42;;
52458;SDS011;38372;52.902;6.024;2023-03-01T01:43:20;63.60;;;25.08;;
52458;SDS011;38372;52.902;6.024;2023-03-01T01:45:46;148.82;;;43.88;;
52458;SDS011;38372;52.902;6.024;2023-03-01T01:48:12;46.95;;;25.30;;
52458;SDS011;38372;52.902;6.024;2023-03-01T01:50:43;58.40;;;22.73;;
52458;SDS011;38372;52.902;6.024;2023-03-01T01:53:14;35.08;;;19.08;;
52458;SDS011;38372;52.902;6.024;2023-03-01T01:55:45;110.90;;;27.58;;
52458;SDS011;38372;52.902;6.024;2023-03-01T01:58:19;187.38;;;29.48;;
52458;SDS011;38372;52.902;6.024;2023-03-01T02:00:46;102.03;;;26.90;;
52458;SDS011;38372;52.902;6.024;2023-03-01T02:03:14;154.27;;;30.92;;
52458;SDS011;38372;52.902;6.024;2023-03-01T02:08:22;182.23;;;31.65;;
52458;SDS011;38372;52.902;6.024;2023-03-01T02:10:52;220.93;;;34.55;;
52458;SDS011;38372;52.902;6.024;2023-03-01T02:13:20;199.13;;;33.00;;
52458;SDS011;38372;52.902;6.024;2023-03-01T02:15:45;207.23;;;29.13;;
52458;SDS011;38372;52.902;6.024;2023-03-01T02:18:12;293.58;;;37.42;;
52458;SDS011;38372;52.902;6.024;2023-03-01T02:23:23;138.70;;;27.70;;
52458;SDS011;38372;52.902;6.024;2023-03-01T02:28:36;361.73;;;54.78;;
52458;SDS011;38372;52.902;6.024;2023-03-01T02:31:07;488.88;;;64.80;;
52458;SDS011;38372;52.902;6.024;2023-03-01T02:33:53;351.80;;;47.20;;
52458;SDS011;38372;52.902;6.024;2023-03-01T02:36:23;634.60;;;85.20;;
52458;SDS011;38372;52.902;6.024;2023-03-01T02:38:52;559.60;;;72.03;;
52458;SDS011;38372;52.902;6.024;2023-03-01T02:41:21;258.85;;;32.78;;
52458;SDS011;38372;52.902;6.024;2023-03-01T02:43:48;521.03;;;63.25;;
52458;SDS011;38372;52.902;6.024;2023-03-01T02:46:15;681.10;;;88.03;;
52458;SDS011;38372;52.902;6.024;2023-03-01T02:51:34;374.73;;;60.58;;
52458;SDS011;38372;52.902;6.024;2023-03-01T02:56:37;290.13;;;43.13;;
52458;SDS011;38372;52.902;6.024;2023-03-01T02:59:02;397.38;;;55.50;;
52458;SDS011;38372;52.902;6.024;2023-03-01T03:01:29;299.08;;;45.88;;
52458;SDS011;38372;52.902;6.024;2023-03-01T03:04:04;601.17;;;78.47;;
52458;SDS011;38372;52.902;6.024;2023-03-01T03:06:31;504.08;;;71.97;;
52458;SDS011;38372;52.902;6.024;2023-03-01T03:08:57;447.83;;;56.08;;
52458;SDS011;38372;52.902;6.024;2023-03-01T03:11:23;618.13;;;83.43;;
52458;SDS011;38372;52.902;6.024;2023-03-01T03:13:49;267.63;;;42.72;;
52458;SDS011;38372;52.902;6.024;2023-03-01T03:16:16;112.10;;;22.92;;
52458;SDS011;38372;52.902;6.024;2023-03-01T03:18:42;551.33;;;70.97;;
52458;SDS011;38372;52.902;6.024;2023-03-01T03:21:08;563.45;;;77.97;;
52458;SDS011;38372;52.902;6.024;2023-03-01T03:23:36;397.67;;;50.63;;
52458;SDS011;38372;52.902;6.024;2023-03-01T03:26:02;229.93;;;34.35;;
52458;SDS011;38372;52.902;6.024;2023-03-01T03:28:30;386.08;;;56.53;;
52458;SDS011;38372;52.902;6.024;2023-03-01T03:30:57;482.50;;;57.80;;
52458;SDS011;38372;52.902;6.024;2023-03-01T03:33:28;459.48;;;42.50;;
52458;SDS011;38372;52.902;6.024;2023-03-01T03:35:55;711.13;;;78.97;;
52458;SDS011;38372;52.902;6.024;2023-03-01T03:38:21;380.50;;;40.13;;
52458;SDS011;38372;52.902;6.024;2023-03-01T03:40:51;403.80;;;46.45;;
52458;SDS011;38372;52.902;6.024;2023-03-01T03:45:54;249.23;;;34.38;;
52458;SDS011;38372;52.902;6.024;2023-03-01T03:48:22;302.95;;;39.95;;
52458;SDS011;38372;52.902;6.024;2023-03-01T03:50:54;341.35;;;39.25;;
52458;SDS011;38372;52.902;6.024;2023-03-01T03:53:22;166.88;;;27.33;;
52458;SDS011;38372;52.902;6.024;2023-03-01T03:55:50;352.42;;;44.92;;
52458;SDS011;38372;52.902;6.024;2023-03-01T03:58:17;310.63;;;37.40;;
52458;SDS011;38372;52.902;6.024;2023-03-01T04:00:45;192.77;;;29.55;;
52458;SDS011;38372;52.902;6.024;2023-03-01T04:03:13;281.45;;;41.08;;
52458;SDS011;38372;52.902;6.024;2023-03-01T04:05:41;192.93;;;34.30;;
52458;SDS011;38372;52.902;6.024;2023-03-01T04:08:07;313.02;;;43.80;;
52458;SDS011;38372;52.902;6.024;2023-03-01T04:10:35;79.00;;;23.25;;
52458;SDS011;38372;52.902;6.024;2023-03-01T04:13:05;64.97;;;22.48;;
52458;SDS011;38372;52.902;6.024;2023-03-01T04:15:33;137.13;;;23.98;;
52458;SDS011;38372;52.902;6.024;2023-03-01T04:17:59;101.75;;;22.25;;
52458;SDS011;38372;52.902;6.024;2023-03-01T04:20:30;105.10;;;22.35;;
52458;SDS011;38372;52.902;6.024;2023-03-01T04:23:06;63.55;;;18.58;;
52458;SDS011;38372;52.902;6.024;2023-03-01T04:25:57;116.68;;;27.13;;
52458;SDS011;38372;52.902;6.024;2023-03-01T04:28:26;94.97;;;22.60;;
52458;SDS011;38372;52.902;6.024;2023-03-01T04:33:20;83.05;;;18.27;;
52458;SDS011;38372;52.902;6.024;2023-03-01T04:35:46;86.47;;;20.40;;
52458;SDS011;38372;52.902;6.024;2023-03-01T04:38:16;44.92;;;18.00;;
52458;SDS011;38372;52.902;6.024;2023-03-01T04:40:42;39.53;;;15.15;;
52458;SDS011;38372;52.902;6.024;2023-03-01T04:43:08;57.42;;;19.17;;
52458;SDS011;38372;52.902;6.024;2023-03-01T04:45:35;141.27;;;30.25;;
52458;SDS011;38372;52.902;6.024;2023-03-01T04:48:02;60.45;;;18.83;;
52458;SDS011;38372;52.902;6.024;2023-03-01T04:50:29;80.60;;;19.73;;
52458;SDS011;38372;52.902;6.024;2023-03-01T04:52:55;106.50;;;22.55;;
52458;SDS011;38372;52.902;6.024;2023-03-01T04:55:24;118.72;;;24.45;;
52458;SDS011;38372;52.902;6.024;2023-03-01T04:57:51;158.15;;;28.05;;
52458;SDS011;38372;52.902;6.024;2023-03-01T05:00:17;122.53;;;28.05;;
52458;SDS011;38372;52.902;6.024;2023-03-01T05:05:30;72.68;;;19.55;;
52458;SDS011;38372;52.902;6.024;2023-03-01T05:07:59;52.80;;;13.68;;
52458;SDS011;38372;52.902;6.024;2023-03-01T05:10:27;57.15;;;17.15;;
52458;SDS011;38372;52.902;6.024;2023-03-01T05:12:58;34.22;;;14.05;;
52458;SDS011;38372;52.902;6.024;2023-03-01T05:15:25;50.67;;;15.23;;
52458;SDS011;38372;52.902;6.024;2023-03-01T05:17:53;46.40;;;15.95;;
52458;SDS011;38372;52.902;6.024;2023-03-01T05:20:19;41.83;;;15.23;;
52458;SDS011;38372;52.902;6.024;2023-03-01T05:22:49;52.87;;;16.80;;
52458;SDS011;38372;52.902;6.024;2023-03-01T05:25:16;52.25;;;16.50;;
52458;SDS011;38372;52.902;6.024;2023-03-01T05:27:42;43.15;;;15.02;;
52458;SDS011;38372;52.902;6.024;2023-03-01T05:30:08;55.95;;;16.33;;
52458;SDS011;38372;52.902;6.024;2023-03-01T05:32:44;60.80;;;17.23;;
52458;SDS011;38372;52.902;6.024;2023-03-01T05:35:12;50.00;;;14.93;;
52458;SDS011;38372;52.902;6.024;2023-03-01T05:37:40;39.60;;;15.43;;
52458;SDS011;38372;52.902;6.024;2023-03-01T05:40:08;55.53;;;16.67;;
52458;SDS011;38372;52.902;6.024;2023-03-01T05:42:54;60.65;;;18.23;;
52458;SDS011;38372;52.902;6.024;2023-03-01T05:45:21;54.15;;;16.45;;
52458;SDS011;38372;52.902;6.024;2023-03-01T05:47:49;89.22;;;19.02;;
52458;SDS011;38372;52.902;6.024;2023-03-01T05:50:17;70.60;;;17.98;;
52458;SDS011;38372;52.902;6.024;2023-03-01T05:52:48;49.67;;;16.92;;
52458;SDS011;38372;52.902;6.024;2023-03-01T05:55:16;39.80;;;16.08;;
52458;SDS011;38372;52.902;6.024;2023-03-01T05:57:43;23.95;;;14.48;;
52458;SDS011;38372;52.902;6.024;2023-03-01T06:00:10;21.35;;;14.80;;
52458;SDS011;38372;52.902;6.024;2023-03-01T06:02:37;19.02;;;13.63;;
52458;SDS011;38372;52.902;6.024;2023-03-01T06:05:04;20.40;;;13.90;;
52458;SDS011;38372;52.902;6.024;2023-03-01T06:07:31;18.10;;;13.63;;
52458;SDS011;38372;52.902;6.024;2023-03-01T06:09:57;19.73;;;13.20;;
52458;SDS011;38372;52.902;6.024;2023-03-01T06:12:23;18.70;;;13.23;;
52458;SDS011;38372;52.902;6.024;2023-03-01T06:14:48;17.70;;;13.68;;
52458;SDS011;38372;52.902;6.024;2023-03-01T06:17:14;18.60;;;12.88;;
52458;SDS011;38372;52.902;6.024;2023-03-01T06:19:40;20.20;;;13.90;;
52458;SDS011;38372;52.902;6.024;2023-03-01T06:22:06;18.58;;;13.45;;
52458;SDS011;38372;52.902;6.024;2023-03-01T06:24:33;18.30;;;12.43;;
52458;SDS011;38372;52.902;6.024;2023-03-01T06:26:59;17.63;;;12.90;;
52458;SDS011;38372;52.902;6.024;2023-03-01T06:29:25;21.33;;;13.05;;
52458;SDS011;38372;52.902;6.024;2023-03-01T06:31:50;17.42;;;12.60;;
52458;SDS011;38372;52.902;6.024;2023-03-01T06:34:16;17.98;;;12.32;;
52458;SDS011;38372;52.902;6.024;2023-03-01T06:36:42;17.88;;;12.68;;
52458;SDS011;38372;52.902;6.024;2023-03-01T06:39:08;16.15;;;12.43;;
52458;SDS011;38372;52.902;6.024;2023-03-01T06:41:34;17.50;;;11.95;;
52458;SDS011;38372;52.902;6.024;2023-03-01T06:44:00;17.58;;;12.65;;
52458;SDS011;38372;52.902;6.024;2023-03-01T06:46:25;16.90;;;12.32;;
52458;SDS011;38372;52.902;6.024;2023-03-01T06:48:51;16.90;;;12.38;;
52458;SDS011;38372;52.902;6.024;2023-03-01T06:51:17;17.20;;;12.32;;
52458;SDS011;38372;52.902;6.024;2023-03-01T06:53:43;16.98;;;12.18;;
52458;SDS011;38372;52.902;6.024;2023-03-01T06:56:10;18.75;;;13.23;;
52458;SDS011;38372;52.902;6.024;2023-03-01T06:58:40;18.25;;;12.95;;
52458;SDS011;38372;52.902;6.024;2023-03-01T07:01:07;18.95;;;12.88;;
52458;SDS011;38372;52.902;6.024;2023-03-01T07:03:36;19.77;;;13.30;;
52458;SDS011;38372;52.902;6.024;2023-03-01T07:06:02;20.02;;;13.80;;
52458;SDS011;38372;52.902;6.024;2023-03-01T07:08:28;18.92;;;12.73;;
52458;SDS011;38372;52.902;6.024;2023-03-01T07:10:58;19.77;;;14.27;;
52458;SDS011;38372;52.902;6.024;2023-03-01T07:13:24;20.63;;;13.70;;
52458;SDS011;38372;52.902;6.024;2023-03-01T07:15:51;19.08;;;12.95;;
52458;SDS011;38372;52.902;6.024;2023-03-01T07:18:17;21.50;;;13.70;;
52458;SDS011;38372;52.902;6.024;2023-03-01T07:20:43;22.85;;;14.80;;
52458;SDS011;38372;52.902;6.024;2023-03-01T07:23:09;21.55;;;14.98;;
52458;SDS011;38372;52.902;6.024;2023-03-01T07:25:35;21.77;;;14.80;;
52458;SDS011;38372;52.902;6.024;2023-03-01T07:28:01;21.95;;;16.00;;
52458;SDS011;38372;52.902;6.024;2023-03-01T07:30:27;21.75;;;15.73;;
52458;SDS011;38372;52.902;6.024;2023-03-01T07:32:55;20.52;;;14.68;;
52458;SDS011;38372;52.902;6.024;2023-03-01T07:35:22;19.58;;;13.82;;
52458;SDS011;38372;52.902;6.024;2023-03-01T07:37:50;22.10;;;14.95;;
52458;SDS011;38372;52.902;6.024;2023-03-01T07:40:16;18.85;;;14.25;;
52458;SDS011;38372;52.902;6.024;2023-03-01T07:42:43;22.38;;;15.60;;
52458;SDS011;38372;52.902;6.024;2023-03-01T07:45:09;21.20;;;14.18;;
52458;SDS011;38372;52.902;6.024;2023-03-01T07:47:36;23.88;;;16.05;;
52458;SDS011;38372;52.902;6.024;2023-03-01T07:50:02;23.35;;;16.02;;
52458;SDS011;38372;52.902;6.024;2023-03-01T07:52:29;24.50;;;15.80;;
52458;SDS011;38372;52.902;6.024;2023-03-01T07:54:56;24.20;;;16.27;;
52458;SDS011;38372;52.902;6.024;2023-03-01T07:57:22;22.73;;;16.45;;
52458;SDS011;38372;52.902;6.024;2023-03-01T07:59:48;23.42;;;16.58;;
52458;SDS011;38372;52.902;6.024;2023-03-01T08:02:14;27.13;;;18.40;;
52458;SDS011;38372;52.902;6.024;2023-03-01T08:04:40;28.15;;;18.73;;
52458;SDS011;38372;52.902;6.024;2023-03-01T08:07:07;32.30;;;20.05;;
52458;SDS011;38372;52.902;6.024;2023-03-01T08:09:36;32.22;;;20.10;;
52458;SDS011;38372;52.902;6.024;2023-03-01T08:12:03;32.08;;;21.35;;
52458;SDS011;38372;52.902;6.024;2023-03-01T08:14:30;28.13;;;19.92;;
52458;SDS011;38372;52.902;6.024;2023-03-01T08:16:57;33.35;;;19.63;;
52458;SDS011;38372;52.902;6.024;2023-03-01T08:19:23;23.80;;;16.30;;
52458;SDS011;38372;52.902;6.024;2023-03-01T08:21:49;22.40;;;16.50;;
52458;SDS011;38372;52.902;6.024;2023-03-01T08:24:15;22.55;;;15.30;;
52458;SDS011;38372;52.902;6.024;2023-03-01T08:26:41;25.10;;;15.40;;
52458;SDS011;38372;52.902;6.024;2023-03-01T08:29:07;20.50;;;15.23;;
52458;SDS011;38372;52.902;6.024;2023-03-01T08:31:37;23.40;;;16.15;;
52458;SDS011;38372;52.902;6.024;2023-03-01T08:34:06;20.40;;;15.43;;
52458;SDS011;38372;52.902;6.024;2023-03-01T08:36:37;21.70;;;15.63;;
52458;SDS011;38372;52.902;6.024;2023-03-01T08:39:05;22.50;;;16.40;;
52458;SDS011;38372;52.902;6.024;2023-03-01T08:41:35;19.98;;;14.43;;
52458;SDS011;38372;52.902;6.024;2023-03-01T08:44:01;20.40;;;14.75;;
52458;SDS011;38372;52.902;6.024;2023-03-01T08:46:29;21.90;;;14.02;;
52458;SDS011;38372;52.902;6.024;2023-03-01T08:49:06;18.02;;;14.38;;
52458;SDS011;38372;52.902;6.024;2023-03-01T08:51:33;18.20;;;13.65;;
52458;SDS011;38372;52.902;6.024;2023-03-01T08:54:02;18.05;;;14.30;;
52458;SDS011;38372;52.902;6.024;2023-03-01T08:56:35;21.67;;;16.33;;
52458;SDS011;38372;52.902;6.024;2023-03-01T08:59:01;21.92;;;16.73;;
52458;SDS011;38372;52.902;6.024;2023-03-01T09:01:28;22.30;;;16.83;;
52458;SDS011;38372;52.902;6.024;2023-03-01T09:03:54;19.25;;;15.40;;
52458;SDS011;38372;52.902;6.024;2023-03-01T09:06:21;21.05;;;17.75;;
52458;SDS011;38372;52.902;6.024;2023-03-01T09:08:47;22.25;;;17.30;;
52458;SDS011;38372;52.902;6.024;2023-03-01T09:11:16;22.85;;;17.95;;
52458;SDS011;38372;52.902;6.024;2023-03-01T09:16:12;22.65;;;18.30;;
52458;SDS011;38372;52.902;6.024;2023-03-01T09:18:39;19.75;;;17.55;;
52458;SDS011;38372;52.902;6.024;2023-03-01T09:21:10;21.65;;;17.80;;
52458;SDS011;38372;52.902;6.024;2023-03-01T09:23:44;22.40;;;18.10;;
52458;SDS011;38372;52.902;6.024;2023-03-01T09:26:12;24.65;;;18.70;;
52458;SDS011;38372;52.902;6.024;2023-03-01T09:28:41;22.70;;;18.98;;
52458;SDS011;38372;52.902;6.024;2023-03-01T09:31:08;23.27;;;19.00;;
52458;SDS011;38372;52.902;6.024;2023-03-01T09:33:34;23.40;;;18.80;;
52458;SDS011;38372;52.902;6.024;2023-03-01T09:36:03;22.02;;;19.00;;
52458;SDS011;38372;52.902;6.024;2023-03-01T09:38:32;20.65;;;18.00;;
52458;SDS011;38372;52.902;6.024;2023-03-01T09:40:59;22.35;;;17.65;;
52458;SDS011;38372;52.902;6.024;2023-03-01T09:46:09;22.00;;;18.02;;
52458;SDS011;38372;52.902;6.024;2023-03-01T09:48:46;20.70;;;17.33;;
52458;SDS011;38372;52.902;6.024;2023-03-01T09:51:31;20.58;;;17.90;;
52458;SDS011;38372;52.902;6.024;2023-03-01T09:53:58;22.33;;;18.23;;
52458;SDS011;38372;52.902;6.024;2023-03-01T09:56:33;20.17;;;16.60;;
52458;SDS011;38372;52.902;6.024;2023-03-01T09:59:24;19.85;;;15.88;;
52458;SDS011;38372;52.902;6.024;2023-03-01T10:07:26;20.27;;;16.63;;
52458;SDS011;38372;52.902;6.024;2023-03-01T10:09:57;19.10;;;16.42;;
52458;SDS011;38372;52.902;6.024;2023-03-01T10:12:27;19.15;;;15.10;;
52458;SDS011;38372;52.902;6.024;2023-03-01T10:15:14;19.23;;;16.48;;
52458;SDS011;38372;52.902;6.024;2023-03-01T10:17:57;16.70;;;14.60;;
52458;SDS011;38372;52.902;6.024;2023-03-01T10:23:19;15.90;;;14.07;;
52458;SDS011;38372;52.902;6.024;2023-03-01T10:28:22;17.70;;;13.73;;
52458;SDS011;38372;52.902;6.024;2023-03-01T10:31:08;16.40;;;14.00;;
52458;SDS011;38372;52.902;6.024;2023-03-01T10:33:40;14.13;;;11.98;;
52458;SDS011;38372;52.902;6.024;2023-03-01T10:36:06;17.45;;;14.60;;
52458;SDS011;38372;52.902;6.024;2023-03-01T10:38:46;15.32;;;12.70;;
52458;SDS011;38372;52.902;6.024;2023-03-01T10:41:18;17.50;;;13.75;;
52458;SDS011;38372;52.902;6.024;2023-03-01T10:43:57;13.77;;;12.38;;
52458;SDS011;38372;52.902;6.024;2023-03-01T10:46:29;12.93;;;11.15;;
52458;SDS011;38372;52.902;6.024;2023-03-01T10:51:46;14.60;;;10.80;;
52458;SDS011;38372;52.902;6.024;2023-03-01T10:56:56;13.80;;;12.38;;
52458;SDS011;38372;52.902;6.024;2023-03-01T11:04:56;14.13;;;12.00;;
52458;SDS011;38372;52.902;6.024;2023-03-01T11:07:22;14.60;;;12.68;;
52458;SDS011;38372;52.902;6.024;2023-03-01T11:09:48;13.48;;;12.05;;
52458;SDS011;38372;52.902;6.024;2023-03-01T11:12:14;14.07;;;12.57;;
52458;SDS011;38372;52.902;6.024;2023-03-01T11:14:48;12.90;;;10.82;;
52458;SDS011;38372;52.902;6.024;2023-03-01T11:20:00;13.93;;;11.98;;
52458;SDS011;38372;52.902;6.024;2023-03-01T11:22:42;14.98;;;11.95;;
52458;SDS011;38372;52.902;6.024;2023-03-01T11:25:17;13.85;;;11.05;;
52458;SDS011;38372;52.902;6.024;2023-03-01T11:27:48;13.45;;;11.55;;
52458;SDS011;38372;52.902;6.024;2023-03-01T11:35:29;14.02;;;11.23;;
52458;SDS011;38372;52.902;6.024;2023-03-01T11:40:40;13.70;;;11.25;;
52458;SDS011;38372;52.902;6.024;2023-03-01T11:48:52;13.73;;;12.30;;
52458;SDS011;38372;52.902;6.024;2023-03-01T12:08:46;13.32;;;10.77;;
52458;SDS011;38372;52.902;6.024;2023-03-01T12:23:15;12.57;;;10.40;;
52458;SDS011;38372;52.902;6.024;2023-03-01T12:25:48;13.93;;;10.93;;
52458;SDS011;38372;52.902;6.024;2023-03-01T12:34:16;16.98;;;12.50;;
52458;SDS011;38372;52.902;6.024;2023-03-01T12:37:05;17.08;;;12.38;;
52458;SDS011;38372;52.902;6.024;2023-03-01T12:50:57;15.75;;;11.13;;
52458;SDS011;38372;52.902;6.024;2023-03-01T12:53:32;14.50;;;11.40;;
52458;SDS011;38372;52.902;6.024;2023-03-01T12:56:04;17.13;;;12.98;;
52458;SDS011;38372;52.902;6.024;2023-03-01T13:04:01;16.73;;;12.35;;
52458;SDS011;38372;52.902;6.024;2023-03-01T13:06:35;18.33;;;13.48;;
52458;SDS011;38372;52.902;6.024;2023-03-01T13:09:12;16.73;;;13.07;;
52458;SDS011;38372;52.902;6.024;2023-03-01T13:17:00;16.27;;;11.98;;
52458;SDS011;38372;52.902;6.024;2023-03-01T13:19:28;14.75;;;11.32;;
52458;SDS011;38372;52.902;6.024;2023-03-01T13:21:55;13.52;;;10.88;;
52458;SDS011;38372;52.902;6.024;2023-03-01T13:24:23;14.48;;;10.90;;
52458;SDS011;38372;52.902;6.024;2023-03-01T13:29:51;14.80;;;10.93;;
52458;SDS011;38372;52.902;6.024;2023-03-01T13:32:24;13.65;;;9.88;;
52458;SDS011;38372;52.902;6.024;2023-03-01T13:34:51;14.05;;;10.85;;
52458;SDS011;38372;52.902;6.024;2023-03-01T13:37:24;15.63;;;11.25;;
52458;SDS011;38372;52.902;6.024;2023-03-01T13:40:03;13.68;;;10.90;;
52458;SDS011;38372;52.902;6.024;2023-03-01T13:42:53;13.90;;;9.95;;
52458;SDS011;38372;52.902;6.024;2023-03-01T13:45:22;13.70;;;11.07;;
52458;SDS011;38372;52.902;6.024;2023-03-01T13:48:03;16.35;;;11.85;;
52458;SDS011;38372;52.902;6.024;2023-03-01T13:50:51;17.47;;;11.87;;
52458;SDS011;38372;52.902;6.024;2023-03-01T13:53:29;16.45;;;12.13;;
52458;SDS011;38372;52.902;6.024;2023-03-01T13:56:02;15.90;;;12.45;;
52458;SDS011;38372;52.902;6.024;2023-03-01T13:58:48;15.20;;;11.77;;
52458;SDS011;38372;52.902;6.024;2023-03-01T14:01:33;18.10;;;12.07;;
52458;SDS011;38372;52.902;6.024;2023-03-01T14:04:01;16.20;;;11.20;;
52458;SDS011;38372;52.902;6.024;2023-03-01T14:06:30;14.43;;;11.38;;
52458;SDS011;38372;52.902;6.024;2023-03-01T14:09:03;12.73;;;7.93;;
52458;SDS011;38372;52.902;6.024;2023-03-01T14:12:03;13.35;;;10.52;;
52458;SDS011;38372;52.902;6.024;2023-03-01T14:20:37;13.85;;;10.02;;
52458;SDS011;38372;52.902;6.024;2023-03-01T14:23:13;15.23;;;11.77;;
52458;SDS011;38372;52.902;6.024;2023-03-01T14:25:51;17.35;;;11.68;;
52458;SDS011;38372;52.902;6.024;2023-03-01T14:28:21;16.17;;;11.55;;
52458;SDS011;38372;52.902;6.024;2023-03-01T14:30:56;17.35;;;11.90;;
52458;SDS011;38372;52.902;6.024;2023-03-01T14:33:25;18.83;;;13.18;;
52458;SDS011;38372;52.902;6.024;2023-03-01T14:35:57;18.23;;;12.73;;
52458;SDS011;38372;52.902;6.024;2023-03-01T14:41:05;18.08;;;12.75;;
52458;SDS011;38372;52.902;6.024;2023-03-01T14:43:35;21.33;;;13.27;;
52458;SDS011;38372;52.902;6.024;2023-03-01T14:46:16;16.15;;;12.80;;
52458;SDS011;38372;52.902;6.024;2023-03-01T14:51:18;18.02;;;11.00;;
52458;SDS011;38372;52.902;6.024;2023-03-01T14:53:44;17.02;;;13.05;;
52458;SDS011;38372;52.902;6.024;2023-03-01T14:56:13;18.70;;;13.45;;
52458;SDS011;38372;52.902;6.024;2023-03-01T14:58:42;18.50;;;13.80;;
52458;SDS011;38372;52.902;6.024;2023-03-01T15:01:13;18.00;;;12.38;;
52458;SDS011;38372;52.902;6.024;2023-03-01T15:03:48;14.95;;;10.60;;
52458;SDS011;38372;52.902;6.024;2023-03-01T15:06:17;20.40;;;15.02;;
52458;SDS011;38372;52.902;6.024;2023-03-01T15:08:46;36.80;;;15.13;;
52458;SDS011;38372;52.902;6.024;2023-03-01T15:13:41;18.17;;;12.07;;
52458;SDS011;38372;52.902;6.024;2023-03-01T15:16:11;16.33;;;12.48;;
52458;SDS011;38372;52.902;6.024;2023-03-01T15:18:47;16.60;;;12.45;;
52458;SDS011;38372;52.902;6.024;2023-03-01T15:21:17;16.02;;;12.00;;
52458;SDS011;38372;52.902;6.024;2023-03-01T15:23:54;16.00;;;11.90;;
52458;SDS011;38372;52.902;6.024;2023-03-01T15:26:43;15.85;;;11.77;;
52458;SDS011;38372;52.902;6.024;2023-03-01T15:29:18;22.38;;;13.68;;
52458;SDS011;38372;52.902;6.024;2023-03-01T15:32:05;16.40;;;13.05;;
52458;SDS011;38372;52.902;6.024;2023-03-01T15:34:53;18.90;;;13.52;;
52458;SDS011;38372;52.902;6.024;2023-03-01T15:37:39;20.45;;;12.95;;
52458;SDS011;38372;52.902;6.024;2023-03-01T15:40:23;16.20;;;13.13;;
52458;SDS011;38372;52.902;6.024;2023-03-01T15:42:59;19.45;;;13.00;;
52458;SDS011;38372;52.902;6.024;2023-03-01T15:45:27;17.48;;;13.05;;
52458;SDS011;38372;52.902;6.024;2023-03-01T15:47:58;15.77;;;12.57;;
52458;SDS011;38372;52.902;6.024;2023-03-01T15:53:01;17.02;;;12.75;;
52458;SDS011;38372;52.902;6.024;2023-03-01T15:55:31;17.35;;;12.48;;
52458;SDS011;38372;52.902;6.024;2023-03-01T15:57:59;17.83;;;12.32;;
52458;SDS011;38372;52.902;6.024;2023-03-01T16:00:32;18.48;;;12.98;;
52458;SDS011;38372;52.902;6.024;2023-03-01T16:02:58;18.00;;;13.55;;
52458;SDS011;38372;52.902;6.024;2023-03-01T16:05:28;17.52;;;12.60;;
52458;SDS011;38372;52.902;6.024;2023-03-01T16:07:56;18.55;;;13.30;;
52458;SDS011;38372;52.902;6.024;2023-03-01T16:10:22;19.60;;;13.93;;
52458;SDS011;38372;52.902;6.024;2023-03-01T16:12:49;16.38;;;13.45;;
52458;SDS011;38372;52.902;6.024;2023-03-01T16:15:21;16.60;;;12.90;;
52458;SDS011;38372;52.902;6.024;2023-03-01T16:17:47;15.30;;;11.57;;
52458;SDS011;38372;52.902;6.024;2023-03-01T16:20:14;18.67;;;12.20;;
52458;SDS011;38372;52.902;6.024;2023-03-01T16:22:44;16.92;;;12.15;;
52458;SDS011;38372;52.902;6.024;2023-03-01T16:25:14;16.88;;;12.02;;
52458;SDS011;38372;52.902;6.024;2023-03-01T16:27:42;18.10;;;12.55;;
52458;SDS011;38372;52.902;6.024;2023-03-01T16:30:09;17.73;;;12.85;;
52458;SDS011;38372;52.902;6.024;2023-03-01T16:32:40;17.15;;;11.93;;
52458;SDS011;38372;52.902;6.024;2023-03-01T16:35:07;15.57;;;11.43;;
52458;SDS011;38372;52.902;6.024;2023-03-01T16:37:35;19.25;;;12.27;;
52458;SDS011;38372;52.902;6.024;2023-03-01T16:40:02;16.55;;;12.20;;
52458;SDS011;38372;52.902;6.024;2023-03-01T16:42:34;16.97;;;12.60;;
52458;SDS011;38372;52.902;6.024;2023-03-01T16:45:00;19.48;;;13.70;;
52458;SDS011;38372;52.902;6.024;2023-03-01T16:47:27;19.75;;;13.90;;
52458;SDS011;38372;52.902;6.024;2023-03-01T16:49:53;18.38;;;12.55;;
52458;SDS011;38372;52.902;6.024;2023-03-01T16:52:20;18.08;;;13.63;;
52458;SDS011;38372;52.902;6.024;2023-03-01T16:54:46;21.75;;;14.27;;